• Join FlightAware (Why Join?)
  • Login
  • US Flag 
03:01PM EDT


 

Airport Tracker/Info


-or-


 

Live Flight TrackerFlight Track Log ✈ UAL432 ✈ 21-May-2013 ✈ KORD - KCLT

Flight Track Log - Related Links

Times and Time Zones

All times are in EDT time to prevent confusion due to time zone crossing. See the UAL432 flight status page for this flight to view local times or setup timezone preferences in your user account.

Time Position Orientation Groundspeed Altitude Reporting Facility
EDT Latitude Longitude Course Direction KTS MPH feet Rate Location/Type
02:44PM 41.9167 -87.9000 169° South 156 180 3,000  Level Chicago TRACON
02:45PM 41.8667 -87.9000 180° South 193 222 4,400 1,740 Climbing Chicago TRACON
02:46PM 41.7314 -87.6155 157° South  Level Estimated
02:46PM 41.8142 -87.8808 165° South 225 259 6,600  Level Chicago Center
02:47PM 41.6478 -87.5190 153° Southeast  Level Estimated
02:47PM 41.7342 -87.8153 149° Southeast 285 328 10,000  Level Chicago Center
02:48PM 41.5412 -87.5569 195° South  Level FlightAware Approximate
02:48PM 41.6636 -87.7597 150° Southeast 292 336 12,300  Level Chicago Center
02:49PM 41.4583 -87.4595 169° South  Level Estimated
02:49PM 41.5794 -87.6922 149° Southeast 351 404 14,100  Level Chicago Center
02:50PM 41.4919 -87.6233 149° Southeast 362 417 16,400 2,340 Climbing Chicago Center
02:51PM 41.3994 -87.5681 156° South 365 420 19,000 1,800 Climbing Chicago Center
02:52PM 41.2978 -87.5500 172° South 366 421 20,200 1,260 Climbing Chicago Center
02:53PM 41.1708 -87.5256 172° South 376 433 21,700 1,440 Climbing Chicago Center
02:54PM 41.0572 -87.4933 168° South 400 460 23,200 1,200 Climbing Chicago Center
02:55PM 40.9417 -87.4625 169° South 417 480 24,300 1,140 Climbing Chicago Center
02:56PM 40.8261 -87.4319 169° South 423 487 25,600 1,200 Climbing Chicago Center
02:57PM 40.7075 -87.3986 168° South 431 496 26,800 1,800 Climbing Chicago Center
02:58PM 40.5786 -87.3072 152° Southeast 436 502 29,400 1,680 Climbing Chicago Center
02:59PM 40.4733 -87.2300 151° Southeast 434 499 30,400 1,380 Climbing Chicago Center
03:00PM 40.3636 -87.1503 151° Southeast 434 499 32,300 1,500 Climbing Chicago Center
03:02PM 40.2636 -87.0767 151° Southeast 419 482 33,600 1,020 Climbing Chicago Center
03:03PM 40.1622 -87.0031 151° Southeast 418 481 34,500 1,020 Climbing Chicago Center
03:03PM 40.0797 -86.9436 151° Southeast 417 480 35,400 840 Climbing Indianapolis Center
03:04PM 39.9806 -86.8706 151° Southeast 412 474 36,000 540 Climbing Indianapolis Center
03:05PM 39.8853 -86.7856 146° Southeast 422 486 36,600 480 Climbing Indianapolis Center
03:06PM 39.8117 -86.6633 128° Southeast 433 498 37,000 180 Climbing Indianapolis Center
03:07PM 39.7386 -86.5408 128° Southeast 432 497 37,000  Level Indianapolis Center
03:08PM 39.6497 -86.3942 128° Southeast 441 507 37,000  Level Indianapolis Center
03:09PM 39.5764 -86.2717 128° Southeast 443 510 37,000  Level Indianapolis Center
03:10PM 39.5017 -86.1481 128° Southeast 441 507 37,000  Level Indianapolis Center
03:11PM 39.4267 -86.0242 128° Southeast 441 507 37,000  Level Indianapolis Center
03:13PM 39.3508 -85.8989 128° Southeast 443 510 37,000  Level Indianapolis Center
03:14PM 39.2742 -85.7731 128° Southeast 447 514 37,000  Level Indianapolis Center
03:15PM 39.1822 -85.6253 129° Southeast 442 509 37,000  Level Indianapolis Center
03:16PM 39.1069 -85.5017 128° Southeast 441 507 37,000  Level Indianapolis Center
03:17PM 39.0306 -85.3789 129° Southeast 441 507 37,000  Level Indianapolis Center
03:18PM 38.9547 -85.2558 128° Southeast 441 507 37,000  Level Indianapolis Center
03:19PM 38.8775 -85.1325 129° Southeast 443 510 37,000  Level Indianapolis Center
03:20PM 38.8006 -85.0089 129° Southeast 443 510 37,000  Level Indianapolis Center
03:21PM 38.7072 -84.8617 129° Southeast 442 509 37,000  Level Indianapolis Center
03:22PM 38.6322 -84.7403 128° Southeast 443 510 37,000  Level Indianapolis Center
03:23PM 38.5542 -84.6203 130° Southeast 439 505 37,000  Level Indianapolis Center
03:24PM 38.4764 -84.4983 129° Southeast 441 507 37,000  Level Indianapolis Center
03:26PM 38.3094 -84.2361 129° Southeast 439 505 37,000  Level Indianapolis Center
03:27PM 38.2317 -84.1142 129° Southeast 441 507 37,000 -360 Level Indianapolis Center
03:28PM 38.1533 -83.9925 129° Southeast 444 511 36,300 -840 Descending Indianapolis Center
03:29PM 38.0753 -83.8733 130° Southeast 439 505 35,300 -960 Descending Indianapolis Center
03:30PM 37.9953 -83.7503 129° Southeast 447 514 34,400 -960 Descending Indianapolis Center
03:31PM 37.9161 -83.6269 129° Southeast 451 519 33,400 -720 Descending Indianapolis Center
03:32PM 37.8214 -83.4831 130° Southeast 455 524 33,000 -240 Descending Indianapolis Center
03:33PM 37.7264 -83.3764 138° Southeast 453 521 33,000  Level Indianapolis Center
03:34PM 37.6247 -83.2800 143° Southeast 457 526 33,000  Level Indianapolis Center
03:35PM 37.5247 -83.1803 142° Southeast 457 526 33,000 -420 Level Indianapolis Center
03:36PM 37.4233 -83.0808 142° Southeast 458 527 32,200 -900 Descending Indianapolis Center
03:37PM 37.3253 -82.9842 142° Southeast 448 516 31,200 -1,020 Descending Indianapolis Center
03:38PM 37.2100 -82.8725 142° Southeast 446 513 30,100 -1,020 Descending Indianapolis Center
03:39PM 37.1133 -82.7775 142° Southeast 438 504 29,100 -540 Descending Indianapolis Center
03:40PM 37.0156 -82.6822 142° Southeast 438 504 29,000 -60 Descending Indianapolis Center
03:41PM 36.9147 -82.5867 143° Southeast 445 512 29,000  Level Indianapolis Center
03:42PM 36.8072 -82.5042 148° Southeast 449 517 29,000  Level Indianapolis Center
03:43PM 36.7008 -82.4222 148° Southeast 447 514 29,000  Level Indianapolis Center
03:44PM 36.5933 -82.3383 148° Southeast 454 522 29,000  Level Indianapolis Center
03:45PM 36.5211 -82.2822 148° Southeast 459 528 29,000 -1,380 Level Atlanta Center
03:46PM 36.4158 -82.2019 148° Southeast 459 528 26,900 -2,160 Descending Atlanta Center
03:47PM 36.3122 -82.1217 148° Southeast 459 528 24,700 -1,920 Descending Atlanta Center
03:48PM 36.2236 -82.0544 149° Southeast 435 501 23,100 -2,040 Descending Atlanta Center
03:49PM 36.1225 -81.9850 151° Southeast 424 488 20,700 -2,400 Descending Atlanta Center
03:50PM 36.0172 -81.9286 157° South 408 470 18,400 -1,980 Descending Atlanta Center
03:51PM 35.9242 -81.8592 149° Southeast 398 458 16,800 -1,800 Descending Atlanta Center
03:52PM 35.8372 -81.7847 145° Southeast 387 445 14,800 -2,160 Descending Atlanta Center
03:53PM 35.7547 -81.7128 145° Southeast 374 430 12,500 -1,860 Descending Atlanta Center
03:54PM 35.6739 -81.6433 145° Southeast 368 423 11,100 -780 Descending Atlanta Center
03:55PM 35.6039 -81.5792 143° Southeast 335 386 11,000 -120 Descending Atlanta Center
03:56PM 35.5522 -81.4939 127° Southeast 309 356 10,900 -420 Descending Atlanta Center
03:56PM 35.5389 -81.4611 117° Southeast 305 351 10,500 -1,500 Descending Atlanta Center
03:57PM 35.5208 -81.4003 110° East 297 342 9,400 -1,620 Descending Atlanta Center
03:57PM 35.5075 -81.3650 115° Southeast 302 348 8,900 -1,500 Descending Atlanta Center
03:58PM 35.4897 -81.3044 110° East 297 342 7,900 -1,380 Descending Atlanta Center
03:58PM 35.4825 -81.2717 105° East 295 339 7,500 -1,200 Descending Atlanta Center
03:59PM 35.4625 -81.2136 113° Southeast 297 342 6,700 -1,320 Descending Atlanta Center
03:59PM 35.4556 -81.1806 104° East 283 326 6,200 -1,500 Descending Atlanta Center
04:00PM 35.4375 -81.1253 112° Southeast 287 330 5,200 -1,440 Descending Atlanta Center